sensor_id;sensor_type;location;lat;lon;timestamp;P1;durP1;ratioP1;P2;durP2;ratioP2
41629;SDS011;27322;49.488;8.480;2022-08-19T00:01:39;16.33;;;13.07;;
41629;SDS011;27322;49.488;8.480;2022-08-19T00:04:08;17.42;;;13.07;;
41629;SDS011;27322;49.488;8.480;2022-08-19T00:06:37;16.45;;;13.07;;
41629;SDS011;27322;49.488;8.480;2022-08-19T00:09:05;16.35;;;13.20;;
41629;SDS011;27322;49.488;8.480;2022-08-19T00:11:34;17.90;;;14.23;;
41629;SDS011;27322;49.488;8.480;2022-08-19T00:14:01;16.20;;;13.05;;
41629;SDS011;27322;49.488;8.480;2022-08-19T00:16:28;16.08;;;13.23;;
41629;SDS011;27322;49.488;8.480;2022-08-19T00:18:54;16.05;;;13.20;;
41629;SDS011;27322;49.488;8.480;2022-08-19T00:21:20;16.70;;;13.77;;
41629;SDS011;27322;49.488;8.480;2022-08-19T00:23:46;17.98;;;14.35;;
41629;SDS011;27322;49.488;8.480;2022-08-19T00:26:12;16.30;;;13.82;;
41629;SDS011;27322;49.488;8.480;2022-08-19T00:28:38;19.10;;;14.07;;
41629;SDS011;27322;49.488;8.480;2022-08-19T00:31:05;19.05;;;13.75;;
41629;SDS011;27322;49.488;8.480;2022-08-19T00:33:32;17.58;;;14.32;;
41629;SDS011;27322;49.488;8.480;2022-08-19T00:36:02;18.23;;;13.85;;
41629;SDS011;27322;49.488;8.480;2022-08-19T00:38:31;16.98;;;13.38;;
41629;SDS011;27322;49.488;8.480;2022-08-19T00:40:57;17.48;;;13.57;;
41629;SDS011;27322;49.488;8.480;2022-08-19T00:43:24;16.65;;;12.77;;
41629;SDS011;27322;49.488;8.480;2022-08-19T00:45:51;16.70;;;13.50;;
41629;SDS011;27322;49.488;8.480;2022-08-19T00:48:17;14.88;;;12.90;;
41629;SDS011;27322;49.488;8.480;2022-08-19T00:50:45;16.85;;;13.13;;
41629;SDS011;27322;49.488;8.480;2022-08-19T00:53:13;17.33;;;13.23;;
41629;SDS011;27322;49.488;8.480;2022-08-19T00:55:42;15.90;;;13.30;;
41629;SDS011;27322;49.488;8.480;2022-08-19T00:58:12;16.75;;;13.48;;
41629;SDS011;27322;49.488;8.480;2022-08-19T01:00:42;15.77;;;13.23;;
41629;SDS011;27322;49.488;8.480;2022-08-19T01:03:12;17.20;;;13.70;;
41629;SDS011;27322;49.488;8.480;2022-08-19T01:05:41;21.70;;;14.35;;
41629;SDS011;27322;49.488;8.480;2022-08-19T01:08:08;17.60;;;13.55;;
41629;SDS011;27322;49.488;8.480;2022-08-19T01:10:52;15.77;;;13.23;;
41629;SDS011;27322;49.488;8.480;2022-08-19T01:13:21;17.23;;;14.15;;
41629;SDS011;27322;49.488;8.480;2022-08-19T01:15:52;20.25;;;14.23;;
41629;SDS011;27322;49.488;8.480;2022-08-19T01:18:30;17.35;;;13.68;;
41629;SDS011;27322;49.488;8.480;2022-08-19T01:20:58;16.25;;;13.65;;
41629;SDS011;27322;49.488;8.480;2022-08-19T01:23:28;16.95;;;14.18;;
41629;SDS011;27322;49.488;8.480;2022-08-19T01:26:08;16.98;;;13.88;;
41629;SDS011;27322;49.488;8.480;2022-08-19T01:28:37;15.35;;;12.95;;
41629;SDS011;27322;49.488;8.480;2022-08-19T01:31:03;15.80;;;13.88;;
41629;SDS011;27322;49.488;8.480;2022-08-19T01:33:29;19.92;;;14.38;;
41629;SDS011;27322;49.488;8.480;2022-08-19T01:36:06;15.43;;;13.18;;
41629;SDS011;27322;49.488;8.480;2022-08-19T01:38:38;15.85;;;13.18;;
41629;SDS011;27322;49.488;8.480;2022-08-19T01:41:06;15.95;;;13.48;;
41629;SDS011;27322;49.488;8.480;2022-08-19T01:43:33;17.00;;;13.82;;
41629;SDS011;27322;49.488;8.480;2022-08-19T01:45:59;17.02;;;14.55;;
41629;SDS011;27322;49.488;8.480;2022-08-19T01:48:25;17.90;;;14.90;;
41629;SDS011;27322;49.488;8.480;2022-08-19T01:50:54;15.85;;;13.45;;
41629;SDS011;27322;49.488;8.480;2022-08-19T01:53:20;17.10;;;13.85;;
41629;SDS011;27322;49.488;8.480;2022-08-19T01:55:45;19.30;;;14.38;;
41629;SDS011;27322;49.488;8.480;2022-08-19T01:58:14;19.13;;;15.40;;
41629;SDS011;27322;49.488;8.480;2022-08-19T02:00:44;18.58;;;15.27;;
41629;SDS011;27322;49.488;8.480;2022-08-19T02:03:10;18.45;;;15.07;;
41629;SDS011;27322;49.488;8.480;2022-08-19T02:05:36;17.85;;;14.70;;
41629;SDS011;27322;49.488;8.480;2022-08-19T02:08:03;17.42;;;14.25;;
41629;SDS011;27322;49.488;8.480;2022-08-19T02:10:29;17.27;;;14.77;;
41629;SDS011;27322;49.488;8.480;2022-08-19T02:12:55;20.17;;;16.40;;
41629;SDS011;27322;49.488;8.480;2022-08-19T02:15:21;19.27;;;15.00;;
41629;SDS011;27322;49.488;8.480;2022-08-19T02:17:47;22.83;;;15.43;;
41629;SDS011;27322;49.488;8.480;2022-08-19T02:20:13;16.25;;;14.30;;
41629;SDS011;27322;49.488;8.480;2022-08-19T02:22:40;19.23;;;15.35;;
41629;SDS011;27322;49.488;8.480;2022-08-19T02:25:08;19.13;;;15.45;;
41629;SDS011;27322;49.488;8.480;2022-08-19T02:27:35;18.17;;;14.65;;
41629;SDS011;27322;49.488;8.480;2022-08-19T02:30:04;20.70;;;15.15;;
41629;SDS011;27322;49.488;8.480;2022-08-19T02:32:31;21.23;;;14.93;;
41629;SDS011;27322;49.488;8.480;2022-08-19T02:34:57;17.75;;;14.50;;
41629;SDS011;27322;49.488;8.480;2022-08-19T02:37:22;18.52;;;14.68;;
41629;SDS011;27322;49.488;8.480;2022-08-19T02:40:07;20.40;;;15.25;;
41629;SDS011;27322;49.488;8.480;2022-08-19T02:42:33;19.10;;;15.23;;
41629;SDS011;27322;49.488;8.480;2022-08-19T02:44:59;18.17;;;15.10;;
41629;SDS011;27322;49.488;8.480;2022-08-19T02:47:25;19.75;;;15.15;;
41629;SDS011;27322;49.488;8.480;2022-08-19T02:49:50;19.05;;;15.30;;
41629;SDS011;27322;49.488;8.480;2022-08-19T02:52:16;20.25;;;15.70;;
41629;SDS011;27322;49.488;8.480;2022-08-19T02:54:42;18.20;;;14.77;;
41629;SDS011;27322;49.488;8.480;2022-08-19T02:57:08;16.38;;;13.82;;
41629;SDS011;27322;49.488;8.480;2022-08-19T02:59:34;20.38;;;16.58;;
41629;SDS011;27322;49.488;8.480;2022-08-19T03:02:00;18.65;;;15.15;;
41629;SDS011;27322;49.488;8.480;2022-08-19T03:04:26;17.50;;;14.57;;
41629;SDS011;27322;49.488;8.480;2022-08-19T03:06:52;20.38;;;15.20;;
41629;SDS011;27322;49.488;8.480;2022-08-19T03:09:18;19.25;;;14.23;;
41629;SDS011;27322;49.488;8.480;2022-08-19T03:11:45;19.50;;;15.45;;
41629;SDS011;27322;49.488;8.480;2022-08-19T03:14:11;18.58;;;15.40;;
41629;SDS011;27322;49.488;8.480;2022-08-19T03:16:45;19.50;;;15.57;;
41629;SDS011;27322;49.488;8.480;2022-08-19T03:19:16;17.27;;;14.98;;
41629;SDS011;27322;49.488;8.480;2022-08-19T03:21:43;20.42;;;14.95;;
41629;SDS011;27322;49.488;8.480;2022-08-19T03:24:10;20.02;;;16.00;;
41629;SDS011;27322;49.488;8.480;2022-08-19T03:26:40;20.95;;;15.57;;
41629;SDS011;27322;49.488;8.480;2022-08-19T03:29:08;20.05;;;15.88;;
41629;SDS011;27322;49.488;8.480;2022-08-19T03:31:36;20.98;;;16.58;;
41629;SDS011;27322;49.488;8.480;2022-08-19T03:34:04;20.35;;;16.10;;
41629;SDS011;27322;49.488;8.480;2022-08-19T03:36:30;18.70;;;15.35;;
41629;SDS011;27322;49.488;8.480;2022-08-19T03:38:56;19.85;;;15.95;;
41629;SDS011;27322;49.488;8.480;2022-08-19T03:41:24;17.83;;;14.63;;
41629;SDS011;27322;49.488;8.480;2022-08-19T03:43:55;20.58;;;16.00;;
41629;SDS011;27322;49.488;8.480;2022-08-19T03:46:23;18.08;;;14.00;;
41629;SDS011;27322;49.488;8.480;2022-08-19T03:48:55;17.30;;;14.32;;
41629;SDS011;27322;49.488;8.480;2022-08-19T03:53:56;18.90;;;15.05;;
41629;SDS011;27322;49.488;8.480;2022-08-19T03:56:23;17.90;;;14.70;;
41629;SDS011;27322;49.488;8.480;2022-08-19T03:58:50;18.85;;;15.10;;
41629;SDS011;27322;49.488;8.480;2022-08-19T04:01:18;18.08;;;14.13;;
41629;SDS011;27322;49.488;8.480;2022-08-19T04:03:46;20.98;;;14.93;;
41629;SDS011;27322;49.488;8.480;2022-08-19T04:06:18;17.35;;;14.23;;
41629;SDS011;27322;49.488;8.480;2022-08-19T04:08:47;18.00;;;14.23;;
41629;SDS011;27322;49.488;8.480;2022-08-19T04:11:17;16.33;;;13.65;;
41629;SDS011;27322;49.488;8.480;2022-08-19T04:13:46;16.50;;;14.32;;
41629;SDS011;27322;49.488;8.480;2022-08-19T04:16:13;17.95;;;14.70;;
41629;SDS011;27322;49.488;8.480;2022-08-19T04:18:39;15.05;;;12.57;;
41629;SDS011;27322;49.488;8.480;2022-08-19T04:21:05;15.55;;;12.75;;
41629;SDS011;27322;49.488;8.480;2022-08-19T04:23:32;18.80;;;14.63;;
41629;SDS011;27322;49.488;8.480;2022-08-19T04:26:01;15.93;;;13.05;;
41629;SDS011;27322;49.488;8.480;2022-08-19T04:28:26;17.98;;;13.57;;
41629;SDS011;27322;49.488;8.480;2022-08-19T04:30:53;16.45;;;13.43;;
41629;SDS011;27322;49.488;8.480;2022-08-19T04:33:21;14.15;;;11.93;;
41629;SDS011;27322;49.488;8.480;2022-08-19T04:35:49;15.25;;;13.40;;
41629;SDS011;27322;49.488;8.480;2022-08-19T04:38:17;17.73;;;13.82;;
41629;SDS011;27322;49.488;8.480;2022-08-19T04:40:48;16.80;;;13.10;;
41629;SDS011;27322;49.488;8.480;2022-08-19T04:43:34;16.58;;;13.75;;
41629;SDS011;27322;49.488;8.480;2022-08-19T04:46:05;15.20;;;12.20;;
41629;SDS011;27322;49.488;8.480;2022-08-19T04:48:33;15.15;;;13.05;;
41629;SDS011;27322;49.488;8.480;2022-08-19T04:50:59;17.75;;;14.45;;
41629;SDS011;27322;49.488;8.480;2022-08-19T04:53:28;17.42;;;13.00;;
41629;SDS011;27322;49.488;8.480;2022-08-19T04:55:59;16.60;;;14.07;;
41629;SDS011;27322;49.488;8.480;2022-08-19T04:58:28;17.23;;;13.20;;
41629;SDS011;27322;49.488;8.480;2022-08-19T05:00:54;19.95;;;13.63;;
41629;SDS011;27322;49.488;8.480;2022-08-19T05:03:20;16.65;;;12.23;;
41629;SDS011;27322;49.488;8.480;2022-08-19T05:05:46;15.25;;;12.55;;
41629;SDS011;27322;49.488;8.480;2022-08-19T05:08:14;16.20;;;12.98;;
41629;SDS011;27322;49.488;8.480;2022-08-19T05:10:47;15.60;;;12.63;;
41629;SDS011;27322;49.488;8.480;2022-08-19T05:13:15;14.35;;;11.82;;
41629;SDS011;27322;49.488;8.480;2022-08-19T05:15:43;15.05;;;12.52;;
41629;SDS011;27322;49.488;8.480;2022-08-19T05:18:09;15.63;;;12.15;;
41629;SDS011;27322;49.488;8.480;2022-08-19T05:23:38;15.80;;;12.57;;
41629;SDS011;27322;49.488;8.480;2022-08-19T05:26:04;15.23;;;12.65;;
41629;SDS011;27322;49.488;8.480;2022-08-19T05:28:29;18.50;;;12.82;;
41629;SDS011;27322;49.488;8.480;2022-08-19T05:30:55;15.15;;;12.55;;
41629;SDS011;27322;49.488;8.480;2022-08-19T05:33:21;17.15;;;12.73;;
41629;SDS011;27322;49.488;8.480;2022-08-19T05:35:48;14.95;;;12.00;;
41629;SDS011;27322;49.488;8.480;2022-08-19T05:38:15;15.43;;;12.35;;
41629;SDS011;27322;49.488;8.480;2022-08-19T05:40:43;15.40;;;11.52;;
41629;SDS011;27322;49.488;8.480;2022-08-19T05:43:13;13.80;;;11.68;;
41629;SDS011;27322;49.488;8.480;2022-08-19T05:45:42;15.52;;;11.55;;
41629;SDS011;27322;49.488;8.480;2022-08-19T05:48:09;16.55;;;11.77;;
41629;SDS011;27322;49.488;8.480;2022-08-19T05:50:36;21.35;;;12.02;;
41629;SDS011;27322;49.488;8.480;2022-08-19T05:53:03;14.30;;;11.05;;
41629;SDS011;27322;49.488;8.480;2022-08-19T05:55:29;13.55;;;10.93;;
41629;SDS011;27322;49.488;8.480;2022-08-19T05:57:55;15.93;;;11.18;;
41629;SDS011;27322;49.488;8.480;2022-08-19T06:00:21;13.02;;;10.65;;
41629;SDS011;27322;49.488;8.480;2022-08-19T06:02:47;14.15;;;11.60;;
41629;SDS011;27322;49.488;8.480;2022-08-19T06:05:13;14.25;;;10.65;;
41629;SDS011;27322;49.488;8.480;2022-08-19T06:07:39;13.55;;;11.07;;
41629;SDS011;27322;49.488;8.480;2022-08-19T06:10:05;18.40;;;11.75;;
41629;SDS011;27322;49.488;8.480;2022-08-19T06:12:34;15.10;;;10.93;;
41629;SDS011;27322;49.488;8.480;2022-08-19T06:15:02;14.57;;;11.07;;
41629;SDS011;27322;49.488;8.480;2022-08-19T06:17:33;14.20;;;10.40;;
41629;SDS011;27322;49.488;8.480;2022-08-19T06:20:00;13.50;;;11.10;;
41629;SDS011;27322;49.488;8.480;2022-08-19T06:22:27;15.63;;;10.90;;
41629;SDS011;27322;49.488;8.480;2022-08-19T06:24:54;13.10;;;10.13;;
41629;SDS011;27322;49.488;8.480;2022-08-19T06:27:20;15.43;;;11.63;;
41629;SDS011;27322;49.488;8.480;2022-08-19T06:29:46;13.48;;;11.48;;
41629;SDS011;27322;49.488;8.480;2022-08-19T06:32:13;13.52;;;10.40;;
41629;SDS011;27322;49.488;8.480;2022-08-19T06:34:41;14.98;;;11.35;;
41629;SDS011;27322;49.488;8.480;2022-08-19T06:37:07;13.23;;;10.05;;
41629;SDS011;27322;49.488;8.480;2022-08-19T06:39:35;15.15;;;11.23;;
41629;SDS011;27322;49.488;8.480;2022-08-19T06:42:03;14.07;;;11.13;;
41629;SDS011;27322;49.488;8.480;2022-08-19T06:44:33;16.05;;;11.48;;
41629;SDS011;27322;49.488;8.480;2022-08-19T06:47:02;12.93;;;10.27;;
41629;SDS011;27322;49.488;8.480;2022-08-19T06:49:29;12.05;;;9.85;;
41629;SDS011;27322;49.488;8.480;2022-08-19T06:51:58;12.48;;;9.63;;
41629;SDS011;27322;49.488;8.480;2022-08-19T06:54:25;13.65;;;10.50;;
41629;SDS011;27322;49.488;8.480;2022-08-19T06:56:51;13.45;;;10.57;;
41629;SDS011;27322;49.488;8.480;2022-08-19T06:59:18;14.02;;;10.32;;
41629;SDS011;27322;49.488;8.480;2022-08-19T07:01:47;12.80;;;10.35;;
41629;SDS011;27322;49.488;8.480;2022-08-19T07:04:17;11.75;;;9.77;;
41629;SDS011;27322;49.488;8.480;2022-08-19T07:06:45;15.00;;;10.07;;
41629;SDS011;27322;49.488;8.480;2022-08-19T07:09:13;15.50;;;10.15;;
41629;SDS011;27322;49.488;8.480;2022-08-19T07:11:43;10.90;;;8.77;;
41629;SDS011;27322;49.488;8.480;2022-08-19T07:14:11;12.98;;;9.30;;
41629;SDS011;27322;49.488;8.480;2022-08-19T07:16:37;13.90;;;9.85;;
41629;SDS011;27322;49.488;8.480;2022-08-19T07:19:03;13.65;;;9.60;;
41629;SDS011;27322;49.488;8.480;2022-08-19T07:21:28;13.63;;;10.05;;
41629;SDS011;27322;49.488;8.480;2022-08-19T07:23:55;13.93;;;9.30;;
41629;SDS011;27322;49.488;8.480;2022-08-19T07:26:25;12.18;;;9.00;;
41629;SDS011;27322;49.488;8.480;2022-08-19T07:28:53;13.93;;;9.82;;
41629;SDS011;27322;49.488;8.480;2022-08-19T07:31:21;12.65;;;9.73;;
41629;SDS011;27322;49.488;8.480;2022-08-19T07:33:48;13.13;;;9.15;;
41629;SDS011;27322;49.488;8.480;2022-08-19T07:36:19;14.13;;;9.48;;
41629;SDS011;27322;49.488;8.480;2022-08-19T07:38:48;12.82;;;8.40;;
41629;SDS011;27322;49.488;8.480;2022-08-19T07:41:17;10.60;;;8.52;;
41629;SDS011;27322;49.488;8.480;2022-08-19T07:43:45;12.00;;;8.48;;
41629;SDS011;27322;49.488;8.480;2022-08-19T07:46:11;13.35;;;8.90;;
41629;SDS011;27322;49.488;8.480;2022-08-19T07:48:38;12.77;;;9.15;;
41629;SDS011;27322;49.488;8.480;2022-08-19T07:51:06;11.15;;;8.40;;
41629;SDS011;27322;49.488;8.480;2022-08-19T07:53:33;11.32;;;8.45;;
41629;SDS011;27322;49.488;8.480;2022-08-19T07:55:59;10.85;;;8.00;;
41629;SDS011;27322;49.488;8.480;2022-08-19T07:58:29;10.40;;;8.02;;
41629;SDS011;27322;49.488;8.480;2022-08-19T08:01:00;9.18;;;7.78;;
41629;SDS011;27322;49.488;8.480;2022-08-19T08:03:26;11.40;;;8.18;;
41629;SDS011;27322;49.488;8.480;2022-08-19T08:06:13;11.02;;;7.40;;
41629;SDS011;27322;49.488;8.480;2022-08-19T08:08:58;10.00;;;7.28;;
41629;SDS011;27322;49.488;8.480;2022-08-19T08:11:36;12.30;;;8.60;;
41629;SDS011;27322;49.488;8.480;2022-08-19T08:14:25;10.35;;;8.00;;
41629;SDS011;27322;49.488;8.480;2022-08-19T08:16:53;11.15;;;7.60;;
41629;SDS011;27322;49.488;8.480;2022-08-19T08:19:19;11.20;;;8.10;;
41629;SDS011;27322;49.488;8.480;2022-08-19T08:21:47;8.95;;;6.82;;
41629;SDS011;27322;49.488;8.480;2022-08-19T08:24:13;10.70;;;7.15;;
41629;SDS011;27322;49.488;8.480;2022-08-19T08:26:40;11.07;;;6.88;;
41629;SDS011;27322;49.488;8.480;2022-08-19T08:29:06;12.77;;;6.93;;
41629;SDS011;27322;49.488;8.480;2022-08-19T08:31:35;10.10;;;7.10;;
41629;SDS011;27322;49.488;8.480;2022-08-19T08:34:00;9.45;;;6.93;;
41629;SDS011;27322;49.488;8.480;2022-08-19T08:36:26;9.23;;;6.00;;
41629;SDS011;27322;49.488;8.480;2022-08-19T08:38:52;11.18;;;5.90;;
41629;SDS011;27322;49.488;8.480;2022-08-19T08:44:16;7.80;;;5.10;;
41629;SDS011;27322;49.488;8.480;2022-08-19T08:46:48;9.77;;;5.65;;
41629;SDS011;27322;49.488;8.480;2022-08-19T08:52:31;9.70;;;6.35;;
41629;SDS011;27322;49.488;8.480;2022-08-19T08:55:03;6.95;;;5.07;;
41629;SDS011;27322;49.488;8.480;2022-08-19T08:57:52;9.15;;;5.95;;
41629;SDS011;27322;49.488;8.480;2022-08-19T09:00:23;8.45;;;5.38;;
41629;SDS011;27322;49.488;8.480;2022-08-19T09:02:51;10.35;;;5.57;;
41629;SDS011;27322;49.488;8.480;2022-08-19T09:05:19;8.45;;;5.60;;
41629;SDS011;27322;49.488;8.480;2022-08-19T09:15:45;8.73;;;6.38;;
41629;SDS011;27322;49.488;8.480;2022-08-19T09:18:42;9.02;;;5.70;;
41629;SDS011;27322;49.488;8.480;2022-08-19T09:21:14;7.63;;;5.90;;
41629;SDS011;27322;49.488;8.480;2022-08-19T09:23:40;9.13;;;5.30;;
41629;SDS011;27322;49.488;8.480;2022-08-19T09:26:12;8.98;;;5.38;;
41629;SDS011;27322;49.488;8.480;2022-08-19T09:28:40;7.63;;;5.10;;
41629;SDS011;27322;49.488;8.480;2022-08-19T09:31:10;6.85;;;5.45;;
41629;SDS011;27322;49.488;8.480;2022-08-19T09:33:38;9.43;;;6.15;;
41629;SDS011;27322;49.488;8.480;2022-08-19T09:36:05;8.30;;;6.22;;
41629;SDS011;27322;49.488;8.480;2022-08-19T09:38:32;8.48;;;6.22;;
41629;SDS011;27322;49.488;8.480;2022-08-19T09:43:52;8.00;;;5.68;;
41629;SDS011;27322;49.488;8.480;2022-08-19T09:46:21;8.85;;;5.82;;
41629;SDS011;27322;49.488;8.480;2022-08-19T09:48:48;7.72;;;5.65;;
41629;SDS011;27322;49.488;8.480;2022-08-19T09:51:17;7.18;;;5.55;;
41629;SDS011;27322;49.488;8.480;2022-08-19T09:53:45;8.82;;;5.45;;
41629;SDS011;27322;49.488;8.480;2022-08-19T09:56:14;8.50;;;6.18;;
41629;SDS011;27322;49.488;8.480;2022-08-19T09:58:42;7.03;;;5.22;;
41629;SDS011;27322;49.488;8.480;2022-08-19T10:01:07;10.18;;;5.57;;
41629;SDS011;27322;49.488;8.480;2022-08-19T10:03:34;9.45;;;5.57;;
41629;SDS011;27322;49.488;8.480;2022-08-19T10:06:02;6.63;;;5.07;;
41629;SDS011;27322;49.488;8.480;2022-08-19T10:08:30;7.43;;;4.60;;
41629;SDS011;27322;49.488;8.480;2022-08-19T10:10:59;7.78;;;5.20;;
41629;SDS011;27322;49.488;8.480;2022-08-19T10:13:27;8.05;;;5.35;;
41629;SDS011;27322;49.488;8.480;2022-08-19T10:15:54;11.02;;;5.57;;
41629;SDS011;27322;49.488;8.480;2022-08-19T10:18:26;7.43;;;4.90;;
41629;SDS011;27322;49.488;8.480;2022-08-19T10:20:52;6.32;;;4.82;;
41629;SDS011;27322;49.488;8.480;2022-08-19T10:23:32;9.05;;;5.15;;
41629;SDS011;27322;49.488;8.480;2022-08-19T10:25:59;8.05;;;5.25;;
41629;SDS011;27322;49.488;8.480;2022-08-19T10:28:25;7.72;;;5.25;;
41629;SDS011;27322;49.488;8.480;2022-08-19T10:30:51;6.82;;;5.25;;
41629;SDS011;27322;49.488;8.480;2022-08-19T10:33:17;8.65;;;6.07;;
41629;SDS011;27322;49.488;8.480;2022-08-19T10:35:42;7.30;;;5.75;;
41629;SDS011;27322;49.488;8.480;2022-08-19T10:38:11;7.78;;;5.20;;
41629;SDS011;27322;49.488;8.480;2022-08-19T10:40:37;7.10;;;5.32;;
41629;SDS011;27322;49.488;8.480;2022-08-19T10:43:03;9.60;;;6.45;;
41629;SDS011;27322;49.488;8.480;2022-08-19T10:45:29;6.95;;;5.78;;
41629;SDS011;27322;49.488;8.480;2022-08-19T10:47:54;8.93;;;6.70;;
41629;SDS011;27322;49.488;8.480;2022-08-19T10:50:20;7.70;;;6.22;;
41629;SDS011;27322;49.488;8.480;2022-08-19T10:53:08;9.60;;;6.47;;
41629;SDS011;27322;49.488;8.480;2022-08-19T10:55:34;7.78;;;6.20;;
41629;SDS011;27322;49.488;8.480;2022-08-19T10:58:20;9.50;;;6.68;;
41629;SDS011;27322;49.488;8.480;2022-08-19T11:00:56;8.20;;;6.47;;
41629;SDS011;27322;49.488;8.480;2022-08-19T11:03:24;7.85;;;5.72;;
41629;SDS011;27322;49.488;8.480;2022-08-19T11:06:01;11.77;;;6.72;;
41629;SDS011;27322;49.488;8.480;2022-08-19T11:08:32;7.80;;;6.20;;
41629;SDS011;27322;49.488;8.480;2022-08-19T11:11:00;9.13;;;6.47;;
41629;SDS011;27322;49.488;8.480;2022-08-19T11:13:29;10.85;;;9.10;;
41629;SDS011;27322;49.488;8.480;2022-08-19T11:16:02;9.93;;;6.53;;
41629;SDS011;27322;49.488;8.480;2022-08-19T11:18:31;9.52;;;6.20;;
41629;SDS011;27322;49.488;8.480;2022-08-19T11:23:45;9.07;;;6.00;;
41629;SDS011;27322;49.488;8.480;2022-08-19T11:26:13;6.30;;;4.63;;
41629;SDS011;27322;49.488;8.480;2022-08-19T11:28:39;7.90;;;5.30;;
41629;SDS011;27322;49.488;8.480;2022-08-19T11:31:16;6.25;;;5.10;;
41629;SDS011;27322;49.488;8.480;2022-08-19T11:33:44;5.97;;;4.70;;
41629;SDS011;27322;49.488;8.480;2022-08-19T11:36:11;5.90;;;4.47;;
41629;SDS011;27322;49.488;8.480;2022-08-19T11:38:37;6.72;;;4.40;;
41629;SDS011;27322;49.488;8.480;2022-08-19T11:41:04;6.38;;;4.35;;
41629;SDS011;27322;49.488;8.480;2022-08-19T11:43:32;5.20;;;4.22;;
41629;SDS011;27322;49.488;8.480;2022-08-19T11:45:59;8.60;;;5.68;;
41629;SDS011;27322;49.488;8.480;2022-08-19T11:48:25;6.70;;;4.75;;
41629;SDS011;27322;49.488;8.480;2022-08-19T11:50:52;9.65;;;5.45;;
41629;SDS011;27322;49.488;8.480;2022-08-19T11:53:20;8.60;;;5.13;;
41629;SDS011;27322;49.488;8.480;2022-08-19T11:55:46;7.00;;;4.93;;
41629;SDS011;27322;49.488;8.480;2022-08-19T11:58:13;6.97;;;4.85;;
41629;SDS011;27322;49.488;8.480;2022-08-19T12:00:41;6.75;;;4.80;;
41629;SDS011;27322;49.488;8.480;2022-08-19T12:03:07;6.70;;;4.68;;
41629;SDS011;27322;49.488;8.480;2022-08-19T12:05:33;7.53;;;4.78;;
41629;SDS011;27322;49.488;8.480;2022-08-19T12:08:01;5.78;;;4.30;;
41629;SDS011;27322;49.488;8.480;2022-08-19T12:10:27;5.97;;;4.65;;
41629;SDS011;27322;49.488;8.480;2022-08-19T12:12:53;7.25;;;4.72;;
41629;SDS011;27322;49.488;8.480;2022-08-19T12:15:18;5.90;;;4.43;;
41629;SDS011;27322;49.488;8.480;2022-08-19T12:17:44;7.38;;;4.70;;
41629;SDS011;27322;49.488;8.480;2022-08-19T12:20:10;5.22;;;4.10;;
41629;SDS011;27322;49.488;8.480;2022-08-19T12:22:42;5.00;;;3.92;;
41629;SDS011;27322;49.488;8.480;2022-08-19T12:25:10;5.85;;;3.90;;
41629;SDS011;27322;49.488;8.480;2022-08-19T12:27:37;5.80;;;4.00;;
41629;SDS011;27322;49.488;8.480;2022-08-19T12:30:04;5.15;;;3.85;;
41629;SDS011;27322;49.488;8.480;2022-08-19T12:32:32;15.70;;;12.90;;
41629;SDS011;27322;49.488;8.480;2022-08-19T12:34:58;9.10;;;4.53;;
41629;SDS011;27322;49.488;8.480;2022-08-19T12:37:24;7.93;;;3.70;;
41629;SDS011;27322;49.488;8.480;2022-08-19T12:39:49;4.72;;;3.17;;
41629;SDS011;27322;49.488;8.480;2022-08-19T12:42:16;6.13;;;3.38;;
41629;SDS011;27322;49.488;8.480;2022-08-19T12:44:43;5.40;;;3.47;;
41629;SDS011;27322;49.488;8.480;2022-08-19T12:47:09;5.03;;;3.25;;
41629;SDS011;27322;49.488;8.480;2022-08-19T12:49:36;5.05;;;3.60;;
41629;SDS011;27322;49.488;8.480;2022-08-19T12:52:04;7.00;;;3.80;;
41629;SDS011;27322;49.488;8.480;2022-08-19T12:54:32;4.47;;;3.40;;
41629;SDS011;27322;49.488;8.480;2022-08-19T12:56:59;5.60;;;3.58;;
41629;SDS011;27322;49.488;8.480;2022-08-19T12:59:25;4.90;;;3.03;;
41629;SDS011;27322;49.488;8.480;2022-08-19T13:01:51;6.10;;;3.30;;
41629;SDS011;27322;49.488;8.480;2022-08-19T13:04:17;5.30;;;3.42;;
41629;SDS011;27322;49.488;8.480;2022-08-19T13:06:43;6.05;;;3.40;;
41629;SDS011;27322;49.488;8.480;2022-08-19T13:09:08;5.63;;;3.50;;
41629;SDS011;27322;49.488;8.480;2022-08-19T13:11:35;5.40;;;3.50;;
41629;SDS011;27322;49.488;8.480;2022-08-19T13:14:01;4.88;;;3.67;;
41629;SDS011;27322;49.488;8.480;2022-08-19T13:16:28;4.78;;;3.05;;
41629;SDS011;27322;49.488;8.480;2022-08-19T13:18:55;6.72;;;3.47;;
41629;SDS011;27322;49.488;8.480;2022-08-19T13:21:23;5.18;;;3.92;;
41629;SDS011;27322;49.488;8.480;2022-08-19T13:23:51;6.47;;;3.75;;
41629;SDS011;27322;49.488;8.480;2022-08-19T13:26:17;8.20;;;3.33;;
41629;SDS011;27322;49.488;8.480;2022-08-19T13:28:44;5.20;;;3.63;;
41629;SDS011;27322;49.488;8.480;2022-08-19T13:31:30;5.35;;;4.00;;
41629;SDS011;27322;49.488;8.480;2022-08-19T13:34:17;5.57;;;3.80;;
41629;SDS011;27322;49.488;8.480;2022-08-19T13:36:51;6.40;;;3.85;;
41629;SDS011;27322;49.488;8.480;2022-08-19T13:39:17;5.22;;;3.25;;
41629;SDS011;27322;49.488;8.480;2022-08-19T13:41:44;6.13;;;3.70;;
41629;SDS011;27322;49.488;8.480;2022-08-19T13:44:15;4.75;;;2.95;;
41629;SDS011;27322;49.488;8.480;2022-08-19T13:46:43;4.80;;;3.10;;
41629;SDS011;27322;49.488;8.480;2022-08-19T13:49:11;4.80;;;2.97;;
41629;SDS011;27322;49.488;8.480;2022-08-19T13:51:38;6.97;;;3.25;;
41629;SDS011;27322;49.488;8.480;2022-08-19T13:54:05;4.50;;;2.70;;
41629;SDS011;27322;49.488;8.480;2022-08-19T13:56:32;4.55;;;2.63;;
41629;SDS011;27322;49.488;8.480;2022-08-19T13:58:57;5.50;;;3.30;;
41629;SDS011;27322;49.488;8.480;2022-08-19T14:01:23;3.60;;;2.55;;
41629;SDS011;27322;49.488;8.480;2022-08-19T14:03:49;6.18;;;3.10;;
41629;SDS011;27322;49.488;8.480;2022-08-19T14:06:15;5.57;;;3.55;;
41629;SDS011;27322;49.488;8.480;2022-08-19T14:08:41;4.28;;;2.75;;
41629;SDS011;27322;49.488;8.480;2022-08-19T14:11:07;4.15;;;2.30;;
41629;SDS011;27322;49.488;8.480;2022-08-19T14:13:34;4.80;;;3.00;;
41629;SDS011;27322;49.488;8.480;2022-08-19T14:16:00;5.07;;;3.40;;
41629;SDS011;27322;49.488;8.480;2022-08-19T14:18:25;4.20;;;2.63;;
41629;SDS011;27322;49.488;8.480;2022-08-19T14:20:51;3.45;;;2.20;;
41629;SDS011;27322;49.488;8.480;2022-08-19T14:23:18;3.05;;;2.10;;
41629;SDS011;27322;49.488;8.480;2022-08-19T14:25:44;3.92;;;2.20;;
41629;SDS011;27322;49.488;8.480;2022-08-19T14:28:11;4.15;;;2.53;;
41629;SDS011;27322;49.488;8.480;2022-08-19T14:30:37;3.58;;;2.40;;
41629;SDS011;27322;49.488;8.480;2022-08-19T14:33:03;3.55;;;2.20;;
41629;SDS011;27322;49.488;8.480;2022-08-19T14:35:31;4.35;;;2.15;;
41629;SDS011;27322;49.488;8.480;2022-08-19T14:37:59;3.10;;;2.00;;
41629;SDS011;27322;49.488;8.480;2022-08-19T14:40:26;3.28;;;2.05;;
41629;SDS011;27322;49.488;8.480;2022-08-19T14:42:58;5.03;;;2.10;;
41629;SDS011;27322;49.488;8.480;2022-08-19T14:45:29;3.80;;;1.92;;
41629;SDS011;27322;49.488;8.480;2022-08-19T14:47:57;6.35;;;1.80;;
41629;SDS011;27322;49.488;8.480;2022-08-19T14:50:25;3.83;;;2.10;;
41629;SDS011;27322;49.488;8.480;2022-08-19T14:52:57;3.13;;;1.80;;
41629;SDS011;27322;49.488;8.480;2022-08-19T14:55:24;3.22;;;1.85;;
41629;SDS011;27322;49.488;8.480;2022-08-19T14:57:49;4.45;;;1.73;;
41629;SDS011;27322;49.488;8.480;2022-08-19T15:00:16;5.05;;;1.88;;
41629;SDS011;27322;49.488;8.480;2022-08-19T15:02:42;3.42;;;1.80;;
41629;SDS011;27322;49.488;8.480;2022-08-19T15:05:11;3.35;;;1.90;;